sensor_id;sensor_type;location;lat;lon;timestamp;pressure;altitude;pressure_sealevel;temperature;humidity
46724;BME280;32463;48.298;11.620;2024-01-10T00:00:32;97031.09;;;-8.64;100.00
46724;BME280;32463;48.298;11.620;2024-01-10T00:02:59;97034.53;;;-8.68;100.00
46724;BME280;32463;48.298;11.620;2024-01-10T00:05:25;97028.72;;;-8.72;100.00
46724;BME280;32463;48.298;11.620;2024-01-10T00:07:52;97026.19;;;-8.70;100.00
46724;BME280;32463;48.298;11.620;2024-01-10T00:10:18;97021.09;;;-8.67;100.00
46724;BME280;32463;48.298;11.620;2024-01-10T00:12:47;97024.41;;;-8.65;100.00
46724;BME280;32463;48.298;11.620;2024-01-10T00:15:14;97025.25;;;-8.65;100.00
46724;BME280;32463;48.298;11.620;2024-01-10T00:17:40;97034.53;;;-8.68;100.00
46724;BME280;32463;48.298;11.620;2024-01-10T00:20:07;97026.84;;;-8.61;100.00
46724;BME280;32463;48.298;11.620;2024-01-10T00:22:34;97041.09;;;-8.61;100.00
46724;BME280;32463;48.298;11.620;2024-01-10T00:25:01;97025.84;;;-8.52;100.00
46724;BME280;32463;48.298;11.620;2024-01-10T00:27:28;97030.88;;;-8.52;100.00
46724;BME280;32463;48.298;11.620;2024-01-10T00:29:54;97019.16;;;-8.53;100.00
46724;BME280;32463;48.298;11.620;2024-01-10T00:32:22;97027.50;;;-8.51;100.00
46724;BME280;32463;48.298;11.620;2024-01-10T00:34:49;97024.03;;;-8.44;100.00
46724;BME280;32463;48.298;11.620;2024-01-10T00:37:15;97019.97;;;-8.51;100.00
46724;BME280;32463;48.298;11.620;2024-01-10T00:39:42;97020.81;;;-8.52;100.00
46724;BME280;32463;48.298;11.620;2024-01-10T00:42:08;97024.13;;;-8.50;100.00
46724;BME280;32463;48.298;11.620;2024-01-10T00:44:35;97020.81;;;-8.52;100.00
46724;BME280;32463;48.298;11.620;2024-01-10T00:47:01;97019.13;;;-8.50;100.00
46724;BME280;32463;48.298;11.620;2024-01-10T00:49:28;97034.03;;;-8.41;100.00
46724;BME280;32463;48.298;11.620;2024-01-10T00:51:54;97034.78;;;-8.36;100.00
46724;BME280;32463;48.298;11.620;2024-01-10T00:54:21;97029.03;;;-8.42;100.00
46724;BME280;32463;48.298;11.620;2024-01-10T00:56:47;97034.16;;;-8.47;100.00
46724;BME280;32463;48.298;11.620;2024-01-10T00:59:15;97033.25;;;-8.43;100.00
46724;BME280;32463;48.298;11.620;2024-01-10T01:01:42;97034.03;;;-8.41;100.00
46724;BME280;32463;48.298;11.620;2024-01-10T01:04:08;97023.69;;;-8.26;100.00
46724;BME280;32463;48.298;11.620;2024-01-10T01:06:35;97032.09;;;-8.27;100.00
46724;BME280;32463;48.298;11.620;2024-01-10T01:09:01;97026.25;;;-8.29;100.00
46724;BME280;32463;48.298;11.620;2024-01-10T01:11:27;97018.56;;;-8.23;100.00
46724;BME280;32463;48.298;11.620;2024-01-10T01:13:54;97026.00;;;-8.15;100.00
46724;BME280;32463;48.298;11.620;2024-01-10T01:16:20;97035.38;;;-8.25;100.00
46724;BME280;32463;48.298;11.620;2024-01-10T01:18:47;97035.31;;;-8.22;100.00
46724;BME280;32463;48.298;11.620;2024-01-10T01:21:13;97035.59;;;-8.34;100.00
46724;BME280;32463;48.298;11.620;2024-01-10T01:23:40;97035.31;;;-8.22;100.00
46724;BME280;32463;48.298;11.620;2024-01-10T01:26:06;97036.19;;;-8.23;100.00
46724;BME280;32463;48.298;11.620;2024-01-10T01:28:33;97035.50;;;-8.29;100.00
46724;BME280;32463;48.298;11.620;2024-01-10T01:31:00;97035.47;;;-8.28;100.00
46724;BME280;32463;48.298;11.620;2024-01-10T01:33:26;97037.91;;;-8.25;100.00
46724;BME280;32463;48.298;11.620;2024-01-10T01:35:53;97037.00;;;-8.21;100.00
46724;BME280;32463;48.298;11.620;2024-01-10T01:38:19;97047.19;;;-8.27;100.00
46724;BME280;32463;48.298;11.620;2024-01-10T01:40:46;97040.63;;;-8.34;100.00
46724;BME280;32463;48.298;11.620;2024-01-10T01:43:25;97048.94;;;-8.32;100.00
46724;BME280;32463;48.298;11.620;2024-01-10T01:45:52;97048.19;;;-8.35;100.00
46724;BME280;32463;48.298;11.620;2024-01-10T01:48:20;97049.06;;;-8.38;100.00
46724;BME280;32463;48.298;11.620;2024-01-10T01:50:48;97054.91;;;-8.36;100.00
46724;BME280;32463;48.298;11.620;2024-01-10T01:53:16;97055.88;;;-8.43;100.00
46724;BME280;32463;48.298;11.620;2024-01-10T01:55:44;97055.22;;;-8.56;100.00
46724;BME280;32463;48.298;11.620;2024-01-10T01:58:12;97059.38;;;-8.53;100.00
46724;BME280;32463;48.298;11.620;2024-01-10T02:00:40;97054.31;;;-8.50;100.00
46724;BME280;32463;48.298;11.620;2024-01-10T02:03:09;97054.09;;;-8.38;100.00
46724;BME280;32463;48.298;11.620;2024-01-10T02:05:37;97059.31;;;-8.48;100.00
46724;BME280;32463;48.298;11.620;2024-01-10T02:08:03;97056.81;;;-8.50;100.00
46724;BME280;32463;48.298;11.620;2024-01-10T02:10:30;97054.22;;;-8.44;100.00
46724;BME280;32463;48.298;11.620;2024-01-10T02:12:56;97057.63;;;-8.48;100.00
46724;BME280;32463;48.298;11.620;2024-01-10T02:15:24;97061.00;;;-8.49;100.00
46724;BME280;32463;48.298;11.620;2024-01-10T02:17:50;97052.69;;;-8.54;100.00
46724;BME280;32463;48.298;11.620;2024-01-10T02:20:16;97046.84;;;-8.55;100.00
46724;BME280;32463;48.298;11.620;2024-01-10T02:22:43;97043.28;;;-8.43;100.00
46724;BME280;32463;48.298;11.620;2024-01-10T02:25:10;97044.25;;;-8.50;100.00
46724;BME280;32463;48.298;11.620;2024-01-10T02:27:37;97042.53;;;-8.48;100.00
46724;BME280;32463;48.298;11.620;2024-01-10T02:30:05;97047.59;;;-8.50;100.00
46724;BME280;32463;48.298;11.620;2024-01-10T02:32:32;97055.09;;;-8.46;100.00
46724;BME280;32463;48.298;11.620;2024-01-10T02:34:59;97054.22;;;-8.44;100.00
46724;BME280;32463;48.298;11.620;2024-01-10T02:37:25;97055.63;;;-8.31;100.00
46724;BME280;32463;48.298;11.620;2024-01-10T02:39:52;97052.34;;;-8.33;100.00
46724;BME280;32463;48.298;11.620;2024-01-10T02:42:18;97056.25;;;-8.20;100.00
46724;BME280;32463;48.298;11.620;2024-01-10T02:44:45;97055.44;;;-8.22;100.00
46724;BME280;32463;48.298;11.620;2024-01-10T02:47:12;97058.72;;;-8.17;100.00
46724;BME280;32463;48.298;11.620;2024-01-10T02:49:38;97057.09;;;-8.21;100.00
46724;BME280;32463;48.298;11.620;2024-01-10T02:52:06;97060.63;;;-8.28;100.00
46724;BME280;32463;48.298;11.620;2024-01-10T02:54:32;97058.91;;;-8.26;100.00
46724;BME280;32463;48.298;11.620;2024-01-10T02:56:59;97055.59;;;-8.28;100.00
46724;BME280;32463;48.298;11.620;2024-01-10T02:59:25;97053.88;;;-8.26;100.00
46724;BME280;32463;48.298;11.620;2024-01-10T03:01:52;97043.19;;;-8.37;100.00
46724;BME280;32463;48.298;11.620;2024-01-10T03:04:18;97043.28;;;-8.43;100.00
46724;BME280;32463;48.298;11.620;2024-01-10T03:06:45;97037.38;;;-8.39;100.00
46724;BME280;32463;48.298;11.620;2024-01-10T03:09:11;97035.66;;;-8.37;100.00
46724;BME280;32463;48.298;11.620;2024-01-10T03:11:38;97035.66;;;-8.37;100.00
46724;BME280;32463;48.298;11.620;2024-01-10T03:14:08;97034.44;;;-8.19;100.00
46724;BME280;32463;48.298;11.620;2024-01-10T03:16:35;97025.25;;;-8.22;100.00
46724;BME280;32463;48.298;11.620;2024-01-10T03:19:02;97030.34;;;-8.25;100.00
46724;BME280;32463;48.298;11.620;2024-01-10T03:21:29;97033.84;;;-8.32;100.00
46724;BME280;32463;48.298;11.620;2024-01-10T03:23:56;97030.47;;;-8.29;100.00
46724;BME280;32463;48.298;11.620;2024-01-10T03:26:24;97025.66;;;-8.40;100.00
46724;BME280;32463;48.298;11.620;2024-01-10T03:28:52;97028.72;;;-8.26;100.00
46724;BME280;32463;48.298;11.620;2024-01-10T03:31:19;97024.59;;;-8.30;100.00
46724;BME280;32463;48.298;11.620;2024-01-10T03:33:46;97032.00;;;-8.24;100.00
46724;BME280;32463;48.298;11.620;2024-01-10T03:36:15;97031.91;;;-8.18;100.00
46724;BME280;32463;48.298;11.620;2024-01-10T03:38:43;97025.31;;;-8.25;100.00
46724;BME280;32463;48.298;11.620;2024-01-10T03:41:13;97022.78;;;-8.23;100.00
46724;BME280;32463;48.298;11.620;2024-01-10T03:43:40;97023.56;;;-8.20;100.00
46724;BME280;32463;48.298;11.620;2024-01-10T03:46:07;97015.91;;;-8.13;100.00
46724;BME280;32463;48.298;11.620;2024-01-10T03:48:34;97026.84;;;-8.16;100.00
46724;BME280;32463;48.298;11.620;2024-01-10T03:51:01;97016.66;;;-8.08;100.00
46724;BME280;32463;48.298;11.620;2024-01-10T03:53:27;97025.75;;;-8.01;100.00
46724;BME280;32463;48.298;11.620;2024-01-10T03:55:54;97010.47;;;-7.94;100.00
46724;BME280;32463;48.298;11.620;2024-01-10T03:58:20;97016.06;;;-7.79;100.00
46724;BME280;32463;48.298;11.620;2024-01-10T04:00:47;97016.84;;;-7.76;100.00
46724;BME280;32463;48.298;11.620;2024-01-10T04:03:14;97014.00;;;-7.61;100.00
46724;BME280;32463;48.298;11.620;2024-01-10T04:05:41;97017.31;;;-7.59;100.00
46724;BME280;32463;48.298;11.620;2024-01-10T04:08:08;97021.41;;;-7.55;100.00
46724;BME280;32463;48.298;11.620;2024-01-10T04:10:34;97023.75;;;-7.45;100.00
46724;BME280;32463;48.298;11.620;2024-01-10T04:13:01;97018.03;;;-7.54;100.00
46724;BME280;32463;48.298;11.620;2024-01-10T04:15:27;97017.13;;;-7.50;100.00
46724;BME280;32463;48.298;11.620;2024-01-10T04:17:54;97009.31;;;-7.37;100.00
46724;BME280;32463;48.298;11.620;2024-01-10T04:20:20;97010.19;;;-7.40;100.00
46724;BME280;32463;48.298;11.620;2024-01-10T04:22:46;97013.56;;;-7.39;100.00
46724;BME280;32463;48.298;11.620;2024-01-10T04:25:13;97008.22;;;-7.27;100.00
46724;BME280;32463;48.298;11.620;2024-01-10T04:27:39;97008.22;;;-7.27;100.00
46724;BME280;32463;48.298;11.620;2024-01-10T04:30:06;97009.63;;;-7.14;100.00
46724;BME280;32463;48.298;11.620;2024-01-10T04:32:33;97013.75;;;-7.11;100.00
46724;BME280;32463;48.298;11.620;2024-01-10T04:35:00;97014.34;;;-7.02;100.00
46724;BME280;32463;48.298;11.620;2024-01-10T04:37:26;97009.47;;;-7.08;100.00
46724;BME280;32463;48.298;11.620;2024-01-10T04:39:52;97012.69;;;-7.03;100.00
46724;BME280;32463;48.298;11.620;2024-01-10T04:42:19;97006.72;;;-6.99;100.00
46724;BME280;32463;48.298;11.620;2024-01-10T04:44:46;97004.94;;;-6.94;100.00
46724;BME280;32463;48.298;11.620;2024-01-10T04:47:12;97009.25;;;-6.99;100.00
46724;BME280;32463;48.298;11.620;2024-01-10T04:49:38;97019.13;;;-6.90;100.00
46724;BME280;32463;48.298;11.620;2024-01-10T04:52:05;97024.09;;;-6.87;100.00
46724;BME280;32463;48.298;11.620;2024-01-10T04:54:32;97010.06;;;-6.98;100.00
46724;BME280;32463;48.298;11.620;2024-01-10T04:56:59;97013.53;;;-7.02;100.00
46724;BME280;32463;48.298;11.620;2024-01-10T04:59:25;97012.78;;;-7.06;100.00
46724;BME280;32463;48.298;11.620;2024-01-10T05:01:52;97011.22;;;-7.10;100.00
46724;BME280;32463;48.298;11.620;2024-01-10T05:04:18;97016.88;;;-7.02;100.00
46724;BME280;32463;48.298;11.620;2024-01-10T05:06:45;97021.84;;;-6.99;100.00
46724;BME280;32463;48.298;11.620;2024-01-10T05:09:12;97016.56;;;-6.88;100.00
46724;BME280;32463;48.298;11.620;2024-01-10T05:11:40;97012.28;;;-6.85;100.00
46724;BME280;32463;48.298;11.620;2024-01-10T05:14:06;97014.22;;;-6.96;100.00
46724;BME280;32463;48.298;11.620;2024-01-10T05:16:33;97017.72;;;-7.03;100.00
46724;BME280;32463;48.298;11.620;2024-01-10T05:19:02;97024.16;;;-6.90;100.00
46724;BME280;32463;48.298;11.620;2024-01-10T05:21:31;97017.34;;;-6.86;100.00
46724;BME280;32463;48.298;11.620;2024-01-10T05:24:00;97016.31;;;-6.77;100.00
46724;BME280;32463;48.298;11.620;2024-01-10T05:26:26;97026.28;;;-6.73;100.00
46724;BME280;32463;48.298;11.620;2024-01-10T05:28:52;97028.69;;;-6.68;100.00
46724;BME280;32463;48.298;11.620;2024-01-10T05:31:19;97027.03;;;-6.69;100.00
46724;BME280;32463;48.298;11.620;2024-01-10T05:33:45;97030.34;;;-6.67;100.00
46724;BME280;32463;48.298;11.620;2024-01-10T05:36:12;97026.50;;;-6.48;100.00
46724;BME280;32463;48.298;11.620;2024-01-10T05:38:38;97026.81;;;-6.60;100.00
46724;BME280;32463;48.298;11.620;2024-01-10T05:41:05;97031.91;;;-6.63;100.00
46724;BME280;32463;48.298;11.620;2024-01-10T05:43:32;97034.94;;;-6.49;100.00
46724;BME280;32463;48.298;11.620;2024-01-10T05:45:59;97043.66;;;-6.62;100.00
46724;BME280;32463;48.298;11.620;2024-01-10T05:48:26;97040.50;;;-6.70;100.00
46724;BME280;32463;48.298;11.620;2024-01-10T05:50:53;97050.38;;;-6.61;100.00
46724;BME280;32463;48.298;11.620;2024-01-10T05:53:19;97054.63;;;-6.63;100.00
46724;BME280;32463;48.298;11.620;2024-01-10T05:55:46;97047.06;;;-6.63;100.00
46724;BME280;32463;48.298;11.620;2024-01-10T05:58:12;97045.81;;;-6.47;100.00
46724;BME280;32463;48.298;11.620;2024-01-10T06:00:39;97049.94;;;-6.43;100.00
46724;BME280;32463;48.298;11.620;2024-01-10T06:03:05;97045.66;;;-6.41;100.00
46724;BME280;32463;48.298;11.620;2024-01-10T06:05:32;97048.34;;;-6.47;100.00
46724;BME280;32463;48.298;11.620;2024-01-10T06:07:59;97044.31;;;-6.54;100.00
46724;BME280;32463;48.298;11.620;2024-01-10T06:10:25;97038.00;;;-6.38;100.00
46724;BME280;32463;48.298;11.620;2024-01-10T06:12:52;97039.28;;;-6.22;100.00
46724;BME280;32463;48.298;11.620;2024-01-10T06:15:18;97041.00;;;-6.24;100.00
46724;BME280;32463;48.298;11.620;2024-01-10T06:17:45;97042.81;;;-6.29;100.00
46724;BME280;32463;48.298;11.620;2024-01-10T06:20:11;97037.97;;;-6.36;100.00
46724;BME280;32463;48.298;11.620;2024-01-10T06:22:39;97045.75;;;-6.44;100.00
46724;BME280;32463;48.298;11.620;2024-01-10T06:25:07;97043.84;;;-6.36;100.00
46724;BME280;32463;48.298;11.620;2024-01-10T06:27:34;97047.44;;;-6.44;100.00
46724;BME280;32463;48.298;11.620;2024-01-10T06:30:00;97049.75;;;-6.37;100.00
46724;BME280;32463;48.298;11.620;2024-01-10T06:32:28;97048.28;;;-6.44;100.00
46724;BME280;32463;48.298;11.620;2024-01-10T06:34:55;97044.63;;;-6.34;100.00
46724;BME280;32463;48.298;11.620;2024-01-10T06:37:22;97047.72;;;-6.23;100.00
46724;BME280;32463;48.298;11.620;2024-01-10T06:39:48;97047.66;;;-6.20;100.00
46724;BME280;32463;48.298;11.620;2024-01-10T06:42:15;97049.38;;;-6.22;100.00
46724;BME280;32463;48.298;11.620;2024-01-10T06:44:41;97044.31;;;-6.22;100.00
46724;BME280;32463;48.298;11.620;2024-01-10T06:47:07;97054.41;;;-6.22;100.00
46724;BME280;32463;48.298;11.620;2024-01-10T06:49:35;97057.66;;;-6.17;100.00
46724;BME280;32463;48.298;11.620;2024-01-10T06:52:01;97059.44;;;-6.20;100.00
46724;BME280;32463;48.298;11.620;2024-01-10T06:54:28;97062.00;;;-6.22;100.00
46724;BME280;32463;48.298;11.620;2024-01-10T06:56:54;97056.22;;;-6.27;100.00
46724;BME280;32463;48.298;11.620;2024-01-10T06:59:20;97055.84;;;-6.12;100.00
46724;BME280;32463;48.298;11.620;2024-01-10T07:01:52;97057.72;;;-6.20;100.00
46724;BME280;32463;48.298;11.620;2024-01-10T07:04:18;97066.16;;;-6.21;100.00
46724;BME280;32463;48.298;11.620;2024-01-10T07:06:47;97062.38;;;-6.04;100.00
46724;BME280;32463;48.298;11.620;2024-01-10T07:09:14;97071.03;;;-6.13;100.00
46724;BME280;32463;48.298;11.620;2024-01-10T07:11:45;97063.72;;;-6.24;100.00
46724;BME280;32463;48.298;11.620;2024-01-10T07:14:13;97073.16;;;-6.32;100.00
46724;BME280;32463;48.298;11.620;2024-01-10T07:16:40;97068.69;;;-6.21;100.00
46724;BME280;32463;48.298;11.620;2024-01-10T07:19:10;97074.69;;;-6.25;100.00
46724;BME280;32463;48.298;11.620;2024-01-10T07:21:41;97077.47;;;-6.35;100.00
46724;BME280;32463;48.298;11.620;2024-01-10T07:24:09;97078.72;;;-6.18;100.00
46724;BME280;32463;48.298;11.620;2024-01-10T07:26:37;97084.91;;;-6.31;100.00
46724;BME280;32463;48.298;11.620;2024-01-10T07:29:04;97087.22;;;-6.22;100.00
46724;BME280;32463;48.298;11.620;2024-01-10T07:31:34;97087.19;;;-6.20;100.00
46724;BME280;32463;48.298;11.620;2024-01-10T07:34:01;97089.03;;;-5.94;100.00
46724;BME280;32463;48.298;11.620;2024-01-10T07:36:32;97092.28;;;-5.89;100.00
46724;BME280;32463;48.298;11.620;2024-01-10T07:39:02;97098.31;;;-5.65;100.00
46724;BME280;32463;48.298;11.620;2024-01-10T07:41:29;97099.50;;;-5.79;100.00
46724;BME280;32463;48.298;11.620;2024-01-10T07:43:56;97103.66;;;-5.76;100.00
46724;BME280;32463;48.298;11.620;2024-01-10T07:46:22;97100.78;;;-5.93;100.00
46724;BME280;32463;48.298;11.620;2024-01-10T07:48:50;97112.34;;;-5.86;100.00
46724;BME280;32463;48.298;11.620;2024-01-10T07:51:17;97114.00;;;-5.85;100.00
46724;BME280;32463;48.298;11.620;2024-01-10T07:53:44;97115.00;;;-5.89;100.00
46724;BME280;32463;48.298;11.620;2024-01-10T07:56:11;97115.22;;;-5.98;100.00
46724;BME280;32463;48.298;11.620;2024-01-10T07:58:39;97113.94;;;-5.82;100.00
46724;BME280;32463;48.298;11.620;2024-01-10T08:01:06;97115.25;;;-6.00;100.00
46724;BME280;32463;48.298;11.620;2024-01-10T08:03:35;97117.97;;;-6.07;100.00
46724;BME280;32463;48.298;11.620;2024-01-10T08:06:02;97122.00;;;-6.00;100.00
46724;BME280;32463;48.298;11.620;2024-01-10T08:08:28;97117.06;;;-6.05;100.00
46724;BME280;32463;48.298;11.620;2024-01-10T08:10:56;97115.34;;;-6.03;100.00
46724;BME280;32463;48.298;11.620;2024-01-10T08:13:22;97117.50;;;-6.22;100.00
46724;BME280;32463;48.298;11.620;2024-01-10T08:15:49;97122.72;;;-5.95;100.00
46724;BME280;32463;48.298;11.620;2024-01-10T08:18:16;97122.81;;;-6.00;100.00
46724;BME280;32463;48.298;11.620;2024-01-10T08:20:42;97129.78;;;-6.09;100.00
46724;BME280;32463;48.298;11.620;2024-01-10T08:23:09;97124.75;;;-6.09;100.00
46724;BME280;32463;48.298;11.620;2024-01-10T08:25:35;97125.56;;;-6.09;100.00
46724;BME280;32463;48.298;11.620;2024-01-10T08:28:03;97119.03;;;-6.16;100.00
46724;BME280;32463;48.298;11.620;2024-01-10T08:30:30;97117.50;;;-5.89;100.00
46724;BME280;32463;48.298;11.620;2024-01-10T08:32:57;97112.78;;;-6.01;100.00
46724;BME280;32463;48.298;11.620;2024-01-10T08:35:24;97114.28;;;-5.94;100.00
46724;BME280;32463;48.298;11.620;2024-01-10T08:37:51;97118.94;;;-6.12;100.00
46724;BME280;32463;48.298;11.620;2024-01-10T08:40:17;97120.53;;;-6.09;100.00
46724;BME280;32463;48.298;11.620;2024-01-10T08:42:46;97124.75;;;-6.09;100.00
46724;BME280;32463;48.298;11.620;2024-01-10T08:45:12;97122.50;;;-6.20;100.00
46724;BME280;32463;48.298;11.620;2024-01-10T08:47:40;97120.84;;;-6.21;100.00
46724;BME280;32463;48.298;11.620;2024-01-10T08:50:06;97123.53;;;-5.95;100.00
46724;BME280;32463;48.298;11.620;2024-01-10T08:52:35;97129.97;;;-6.16;100.00
46724;BME280;32463;48.298;11.620;2024-01-10T08:55:04;97131.09;;;-5.93;100.00
46724;BME280;32463;48.298;11.620;2024-01-10T08:57:31;97124.94;;;-6.16;100.00
46724;BME280;32463;48.298;11.620;2024-01-10T08:59:58;97134.00;;;-6.10;100.00
46724;BME280;32463;48.298;11.620;2024-01-10T09:02:25;97138.41;;;-5.84;100.00
46724;BME280;32463;48.298;11.620;2024-01-10T09:04:53;97140.91;;;-5.84;100.00
46724;BME280;32463;48.298;11.620;2024-01-10T09:07:19;97138.94;;;-5.73;100.00
46724;BME280;32463;48.298;11.620;2024-01-10T09:09:46;97135.31;;;-5.94;100.00
46724;BME280;32463;48.298;11.620;2024-01-10T09:12:13;97137.06;;;-5.97;100.00
46724;BME280;32463;48.298;11.620;2024-01-10T09:14:39;97146.38;;;-5.68;100.00
46724;BME280;32463;48.298;11.620;2024-01-10T09:17:06;97146.50;;;-5.73;100.00
46724;BME280;32463;48.298;11.620;2024-01-10T09:19:33;97145.31;;;-5.60;100.00
46724;BME280;32463;48.298;11.620;2024-01-10T09:21:59;97147.19;;;-5.66;100.00
46724;BME280;32463;48.298;11.620;2024-01-10T09:24:26;97155.44;;;-5.60;100.00
46724;BME280;32463;48.298;11.620;2024-01-10T09:26:55;97156.59;;;-5.73;100.00
46724;BME280;32463;48.298;11.620;2024-01-10T09:29:24;97156.91;;;-5.84;100.00
46724;BME280;32463;48.298;11.620;2024-01-10T09:31:52;97151.84;;;-5.84;100.00
46724;BME280;32463;48.298;11.620;2024-01-10T09:34:19;97157.63;;;-5.80;100.00
46724;BME280;32463;48.298;11.620;2024-01-10T09:36:46;97156.22;;;-5.89;100.00
46724;BME280;32463;48.298;11.620;2024-01-10T09:39:13;97144.75;;;-5.71;100.00
46724;BME280;32463;48.298;11.620;2024-01-10T09:41:50;97139.69;;;-5.38;100.00
46724;BME280;32463;48.298;11.620;2024-01-10T09:44:18;97152.94;;;-5.30;100.00
46724;BME280;32463;48.298;11.620;2024-01-10T09:46:50;97154.44;;;-5.23;100.00
46724;BME280;32463;48.298;11.620;2024-01-10T09:49:18;97149.16;;;-5.47;100.00
46724;BME280;32463;48.298;11.620;2024-01-10T09:51:48;97157.03;;;-5.57;100.00
46724;BME280;32463;48.298;11.620;2024-01-10T09:54:15;97164.41;;;-5.50;100.00
46724;BME280;32463;48.298;11.620;2024-01-10T09:56:42;97153.53;;;-5.52;100.00
46724;BME280;32463;48.298;11.620;2024-01-10T09:59:10;97155.19;;;-5.20;100.00
46724;BME280;32463;48.298;11.620;2024-01-10T10:01:38;97154.50;;;-5.26;100.00
46724;BME280;32463;48.298;11.620;2024-01-10T10:04:07;97157.03;;;-4.97;100.00
46724;BME280;32463;48.298;11.620;2024-01-10T10:06:35;97154.31;;;-4.61;100.00
46724;BME280;32463;48.298;11.620;2024-01-10T10:09:02;97157.03;;;-4.41;100.00
46724;BME280;32463;48.298;11.620;2024-01-10T10:11:29;97151.63;;;-4.57;100.00
46724;BME280;32463;48.298;11.620;2024-01-10T10:13:57;97140.13;;;-4.39;100.00
46724;BME280;32463;48.298;11.620;2024-01-10T10:16:25;97141.38;;;-4.26;100.00
46724;BME280;32463;48.298;11.620;2024-01-10T10:18:52;97145.81;;;-4.32;100.00
46724;BME280;32463;48.298;11.620;2024-01-10T10:21:25;97138.34;;;-4.11;100.00
46724;BME280;32463;48.298;11.620;2024-01-10T10:23:59;97142.75;;;-4.16;100.00
46724;BME280;32463;48.298;11.620;2024-01-10T10:26:29;97151.75;;;-4.33;100.00
46724;BME280;32463;48.298;11.620;2024-01-10T10:28:58;97151.25;;;-4.45;100.00
46724;BME280;32463;48.298;11.620;2024-01-10T10:31:24;97152.25;;;-4.50;100.00
46724;BME280;32463;48.298;11.620;2024-01-10T10:33:51;97154.56;;;-4.43;100.00
46724;BME280;32463;48.298;11.620;2024-01-10T10:36:19;97165.50;;;-4.42;100.00
46724;BME280;32463;48.298;11.620;2024-01-10T10:38:48;97157.63;;;-4.59;100.00
46724;BME280;32463;48.298;11.620;2024-01-10T10:41:15;97163.16;;;-4.48;100.00
46724;BME280;32463;48.298;11.620;2024-01-10T10:43:41;97161.38;;;-4.72;100.00
46724;BME280;32463;48.298;11.620;2024-01-10T10:46:09;97161.91;;;-4.35;100.00
46724;BME280;32463;48.298;11.620;2024-01-10T10:48:37;97156.03;;;-4.35;100.00
46724;BME280;32463;48.298;11.620;2024-01-10T10:51:09;97157.72;;;-4.10;100.00
46724;BME280;32463;48.298;11.620;2024-01-10T10:53:38;97151.38;;;-3.70;100.00
46724;BME280;32463;48.298;11.620;2024-01-10T10:56:06;97149.38;;;-3.62;100.00
46724;BME280;32463;48.298;11.620;2024-01-10T10:58:41;97152.44;;;-3.77;100.00
46724;BME280;32463;48.298;11.620;2024-01-10T11:01:09;97149.91;;;-3.52;100.00
46724;BME280;32463;48.298;11.620;2024-01-10T11:03:38;97151.50;;;-3.26;100.00
46724;BME280;32463;48.298;11.620;2024-01-10T11:06:05;97147.78;;;-3.16;100.00
46724;BME280;32463;48.298;11.620;2024-01-10T11:08:36;97143.03;;;-3.25;100.00
46724;BME280;32463;48.298;11.620;2024-01-10T11:11:21;97147.31;;;-3.51;100.00
46724;BME280;32463;48.298;11.620;2024-01-10T11:16:57;97149.13;;;-3.54;100.00
46724;BME280;32463;48.298;11.620;2024-01-10T11:19:39;97156.00;;;-3.58;100.00
46724;BME280;32463;48.298;11.620;2024-01-10T11:25:11;97146.38;;;-3.01;100.00
46724;BME280;32463;48.298;11.620;2024-01-10T11:27:37;97151.50;;;-3.26;100.00
46724;BME280;32463;48.298;11.620;2024-01-10T11:30:05;97157.75;;;-3.12;100.00
46724;BME280;32463;48.298;11.620;2024-01-10T11:32:32;97156.31;;;-3.42;100.00
46724;BME280;32463;48.298;11.620;2024-01-10T11:37:45;97161.75;;;-3.53;100.00
46724;BME280;32463;48.298;11.620;2024-01-10T11:40:12;97153.78;;;-3.42;100.00
46724;BME280;32463;48.298;11.620;2024-01-10T11:42:42;97155.38;;;-3.40;100.00
46724;BME280;32463;48.298;11.620;2024-01-10T11:45:08;97140.53;;;-3.27;100.00
46724;BME280;32463;48.298;11.620;2024-01-10T11:47:39;97148.66;;;-3.41;100.00
46724;BME280;32463;48.298;11.620;2024-01-10T11:50:07;97150.31;;;-3.40;100.00
46724;BME280;32463;48.298;11.620;2024-01-10T11:52:36;97150.31;;;-3.40;100.00
46724;BME280;32463;48.298;11.620;2024-01-10T11:55:03;97150.09;;;-3.58;100.00
46724;BME280;32463;48.298;11.620;2024-01-10T11:57:32;97148.41;;;-3.58;100.00
46724;BME280;32463;48.298;11.620;2024-01-10T11:59:59;97152.69;;;-3.85;100.00
46724;BME280;32463;48.298;11.620;2024-01-10T12:02:26;97140.78;;;-4.08;100.00
46724;BME280;32463;48.298;11.620;2024-01-10T12:04:55;97148.28;;;-4.04;100.00
46724;BME280;32463;48.298;11.620;2024-01-10T12:07:22;97149.56;;;-3.93;100.00
46724;BME280;32463;48.298;11.620;2024-01-10T12:09:50;97146.69;;;-3.82;100.00
46724;BME280;32463;48.298;11.620;2024-01-10T12:12:17;97139.34;;;-3.90;100.00
46724;BME280;32463;48.298;11.620;2024-01-10T12:14:43;97135.09;;;-3.89;100.00
46724;BME280;32463;48.298;11.620;2024-01-10T12:17:11;97141.44;;;-3.76;100.00
46724;BME280;32463;48.298;11.620;2024-01-10T12:19:38;97137.38;;;-3.57;100.00
46724;BME280;32463;48.298;11.620;2024-01-10T12:22:06;97138.47;;;-3.39;100.00
46724;BME280;32463;48.298;11.620;2024-01-10T12:24:32;97146.75;;;-3.11;100.00
46724;BME280;32463;48.298;11.620;2024-01-10T12:26:59;97140.28;;;-3.43;100.00
46724;BME280;32463;48.298;11.620;2024-01-10T12:29:26;97130.13;;;-3.43;100.00
46724;BME280;32463;48.298;11.620;2024-01-10T12:31:53;97133.00;;;-3.28;100.00
46724;BME280;32463;48.298;11.620;2024-01-10T12:34:20;97135.63;;;-3.31;100.00
46724;BME280;32463;48.298;11.620;2024-01-10T12:36:48;97130.16;;;-3.67;100.00
46724;BME280;32463;48.298;11.620;2024-01-10T12:39:16;97133.13;;;-3.56;100.00
46724;BME280;32463;48.298;11.620;2024-01-10T12:41:43;97135.00;;;-3.61;100.00
46724;BME280;32463;48.298;11.620;2024-01-10T12:44:11;97127.69;;;-3.69;100.00
46724;BME280;32463;48.298;11.620;2024-01-10T12:46:49;97122.28;;;-3.60;100.00
46724;BME280;32463;48.298;11.620;2024-01-10T12:49:15;97116.22;;;-3.32;100.00